Share

Bullhead, SD (57621)

4:18 PM MDT on April 24, 2014 (GMT -0600)
Mobridge Municipal (KMBG) Elev 1716 ft | 45.55 °N, 100.41 °W | Change Station
Active Advisory: Fire Weather Warning

Current weather conditions updated 26 minutes ago

Partly Cloudy
Partly Cloudy
65 °F
Feels Like 65 °F
N
24
Wind Variable Wind from NW
Gusts 31 mph
Sunrise 5:42 AM
Sunset 7:42 PM
Moon Waning Crescent

Tomorrow is forecast to be Warmer than today.

Pressure 29.69 in
Visibility 10.0 miles
Clouds Few 11000 ft
Dew Point 17 °F
Humidity 16%
Rainfall 0.00 in
Snow Depth Not available.
UV 5 out of 16
Pollen 10.90 out of 12
Air Quality Not available.
Flu Activity Sporadic
METAR KMBG 242152Z AUTO 31021G27KT 10SM FEW110 18/M08 A2968 RMK AO2 PK WND 31028/2140 SLP052 T01831083

More Conditions Fewer Conditions

Pressure 29.69 in
Visibility 10.0 miles
Clouds Few 11000 ft
Dew Point 17 °F
Humidity 16%
Rainfall 0.00 in
Snow Depth Not available.
UV 5 out of 16
Pollen 10.90 out of 12
Air Quality Not available.
Flu Activity Sporadic
METAR KMBG 242152Z AUTO 31021G27KT 10SM FEW110 18/M08 A2968 RMK AO2 PK WND 31028/2140 SLP052 T01831083

More Conditions Fewer Conditions

10-Day Weather Forecast

Almanac

Astronomy

Apr. 24, 2014 Rise Set
Actual Time 5:42 AM MDT 7:42 PM MDT
Civil Twilight 5:10 AM MDT 8:15 PM MDT
Nautical Twilight 4:31 AM MDT 8:54 PM MDT
Astronomical Twilight 3:48 AM MDT 9:38 PM MDT
Moon 3:11 AM MDT 2:46 PM MDT
Length of Visible Light 15h 04m
Length of Day
13h 59m
Tomorrow will be 2m 57s longer.
Waning Crescent, 22% of the Moon is Illuminated
Today
Waning Crescent
Apr 29
New
May 6
First Quarter
May 14
Full
May 21
Last Quarter

Today's Extremes

State Highs State Lows

Community

  • Jone Runs Falls
    Jone Runs Falls
  • Easter in Shenandoah National Park
    Easter in Shenandoah National Park
  • Sunset at Apalachicola Bay, Florida
    Sunset at Apalachicola Bay, Florida
  • Clouds mov'n in
    Clouds mov'n in
  • Stacked
    Stacked

WunderPhotos

Upload Photos

1,704,729 photos uploaded!

Nearby

Snow Depth

Station Depth Elevation
North Rapid Creek 10 in 6130 ft
Blind Park 9 in 6890 ft

Coastal Water Temperatures

Place Temperature
No Stations Reporting

Earthquake Activity

City Distance Mag. Time & Date
No recent earthquake activity has been reported nearby.
Minimum magnitude displayed is 2.5.

Nearby Weather Stations

Station Location Temp. Dew Point Humidity Wind Precip. Elev Updated Type
RAWS GRAND RIVER SD, McLaughlin, SD 63 °F 18 °F 17% WNW  at  32 mph 0.00 in / hr 2175 ft 3:06 PM MDT MADIS

Show More Stations Show Fewer Stations

What do you think?

We're not finished. Please let us know what you like, what you don't like, and what you are still missing.